sensor_id;sensor_type;location;lat;lon;timestamp;pressure;altitude;pressure_sealevel;temperature;humidity
64876;BME280;51369;49.862;9.908;2023-04-23T00:02:11;97598.50;;;16.07;62.93
64876;BME280;51369;49.862;9.908;2023-04-23T00:04:37;97599.59;;;16.05;63.33
64876;BME280;51369;49.862;9.908;2023-04-23T00:07:04;97604.28;;;16.03;63.30
64876;BME280;51369;49.862;9.908;2023-04-23T00:09:30;97593.63;;;16.00;63.21
64876;BME280;51369;49.862;9.908;2023-04-23T00:12:00;97592.00;;;15.97;63.27
64876;BME280;51369;49.862;9.908;2023-04-23T00:14:26;97593.00;;;15.96;63.52
64876;BME280;51369;49.862;9.908;2023-04-23T00:16:52;97590.38;;;15.94;63.68
64876;BME280;51369;49.862;9.908;2023-04-23T00:19:18;97590.50;;;15.93;63.56
64876;BME280;51369;49.862;9.908;2023-04-23T00:21:44;97579.00;;;15.89;63.70
64876;BME280;51369;49.862;9.908;2023-04-23T00:24:09;97586.28;;;15.89;64.14
64876;BME280;51369;49.862;9.908;2023-04-23T00:26:34;97576.50;;;15.86;64.01
64876;BME280;51369;49.862;9.908;2023-04-23T00:29:00;97577.59;;;15.84;64.02
64876;BME280;51369;49.862;9.908;2023-04-23T00:31:27;97577.84;;;15.81;64.00
64876;BME280;51369;49.862;9.908;2023-04-23T00:33:53;97580.69;;;15.79;63.94
64876;BME280;51369;49.862;9.908;2023-04-23T00:36:18;97579.94;;;15.77;64.50
64876;BME280;51369;49.862;9.908;2023-04-23T00:38:43;97577.31;;;15.76;64.69
64876;BME280;51369;49.862;9.908;2023-04-23T00:41:09;97587.47;;;15.74;64.72
64876;BME280;51369;49.862;9.908;2023-04-23T00:43:35;97573.09;;;15.72;64.48
64876;BME280;51369;49.862;9.908;2023-04-23T00:46:01;97586.81;;;15.70;64.04
64876;BME280;51369;49.862;9.908;2023-04-23T00:48:27;97590.53;;;15.69;64.54
64876;BME280;51369;49.862;9.908;2023-04-23T00:51:03;97593.47;;;15.66;64.41
64876;BME280;51369;49.862;9.908;2023-04-23T00:53:29;97588.78;;;15.68;64.86
64876;BME280;51369;49.862;9.908;2023-04-23T00:55:54;97590.75;;;15.66;65.21
64876;BME280;51369;49.862;9.908;2023-04-23T00:58:20;97591.75;;;15.65;64.85
64876;BME280;51369;49.862;9.908;2023-04-23T01:00:47;97593.72;;;15.63;64.92
64876;BME280;51369;49.862;9.908;2023-04-23T01:03:14;97586.53;;;15.62;65.59
64876;BME280;51369;49.862;9.908;2023-04-23T01:05:42;97588.38;;;15.61;66.07
64876;BME280;51369;49.862;9.908;2023-04-23T01:08:11;97586.66;;;15.60;65.93
64876;BME280;51369;49.862;9.908;2023-04-23T01:10:40;97590.38;;;15.59;65.79
64876;BME280;51369;49.862;9.908;2023-04-23T01:13:06;97589.50;;;15.59;66.20
64876;BME280;51369;49.862;9.908;2023-04-23T01:15:32;97592.34;;;15.57;66.06
64876;BME280;51369;49.862;9.908;2023-04-23T01:17:57;97582.41;;;15.56;66.25
64876;BME280;51369;49.862;9.908;2023-04-23T01:20:24;97587.00;;;15.56;66.29
64876;BME280;51369;49.862;9.908;2023-04-23T01:22:49;97592.56;;;15.54;66.64
64876;BME280;51369;49.862;9.908;2023-04-23T01:25:15;97591.81;;;15.52;66.51
64876;BME280;51369;49.862;9.908;2023-04-23T01:27:41;97595.50;;;15.51;67.18
64876;BME280;51369;49.862;9.908;2023-04-23T01:30:07;97593.00;;;15.48;67.57
64876;BME280;51369;49.862;9.908;2023-04-23T01:32:33;97599.56;;;15.46;67.90
64876;BME280;51369;49.862;9.908;2023-04-23T01:35:00;97598.91;;;15.42;67.55
64876;BME280;51369;49.862;9.908;2023-04-23T01:37:26;97600.88;;;15.40;67.25
64876;BME280;51369;49.862;9.908;2023-04-23T01:39:52;97594.69;;;15.38;67.23
64876;BME280;51369;49.862;9.908;2023-04-23T01:42:18;97600.22;;;15.37;67.82
64876;BME280;51369;49.862;9.908;2023-04-23T01:44:44;97601.31;;;15.34;68.16
64876;BME280;51369;49.862;9.908;2023-04-23T01:47:09;97597.09;;;15.30;68.71
64876;BME280;51369;49.862;9.908;2023-04-23T01:49:35;97607.22;;;15.28;69.07
64876;BME280;51369;49.862;9.908;2023-04-23T01:52:01;97599.41;;;15.23;69.57
64876;BME280;51369;49.862;9.908;2023-04-23T01:54:26;97603.34;;;15.19;69.04
64876;BME280;51369;49.862;9.908;2023-04-23T01:56:51;97601.72;;;15.17;70.05
64876;BME280;51369;49.862;9.908;2023-04-23T01:59:20;97607.59;;;15.11;70.03
64876;BME280;51369;49.862;9.908;2023-04-23T02:01:47;97603.47;;;15.05;70.82
64876;BME280;51369;49.862;9.908;2023-04-23T02:04:13;97600.22;;;15.00;71.24
64876;BME280;51369;49.862;9.908;2023-04-23T02:06:41;97601.41;;;14.96;72.22
64876;BME280;51369;49.862;9.908;2023-04-23T02:09:07;97608.94;;;14.92;72.58
64876;BME280;51369;49.862;9.908;2023-04-23T02:11:32;97614.59;;;14.89;72.33
64876;BME280;51369;49.862;9.908;2023-04-23T02:13:59;97611.34;;;14.84;72.54
64876;BME280;51369;49.862;9.908;2023-04-23T02:16:25;97603.41;;;14.81;72.32
64876;BME280;51369;49.862;9.908;2023-04-23T02:18:53;97610.91;;;14.78;72.48
64876;BME280;51369;49.862;9.908;2023-04-23T02:21:18;97614.94;;;14.72;72.28
64876;BME280;51369;49.862;9.908;2023-04-23T02:23:43;97611.56;;;14.69;72.27
64876;BME280;51369;49.862;9.908;2023-04-23T02:26:09;97611.78;;;14.65;72.42
64876;BME280;51369;49.862;9.908;2023-04-23T02:28:35;97614.59;;;14.64;72.62
64876;BME280;51369;49.862;9.908;2023-04-23T02:31:00;97609.41;;;14.61;73.01
64876;BME280;51369;49.862;9.908;2023-04-23T02:33:25;97605.91;;;14.59;73.62
64876;BME280;51369;49.862;9.908;2023-04-23T02:35:51;97612.44;;;14.56;73.89
64876;BME280;51369;49.862;9.908;2023-04-23T02:38:17;97607.09;;;14.55;74.96
64876;BME280;51369;49.862;9.908;2023-04-23T02:40:42;97606.34;;;14.53;74.93
64876;BME280;51369;49.862;9.908;2023-04-23T02:43:08;97615.47;;;14.52;74.67
64876;BME280;51369;49.862;9.908;2023-04-23T02:45:33;97612.00;;;14.50;75.17
64876;BME280;51369;49.862;9.908;2023-04-23T02:47:58;97609.50;;;14.47;75.18
64876;BME280;51369;49.862;9.908;2023-04-23T02:50:24;97620.47;;;14.45;75.47
64876;BME280;51369;49.862;9.908;2023-04-23T02:52:50;97614.28;;;14.43;75.65
64876;BME280;51369;49.862;9.908;2023-04-23T02:55:15;97617.16;;;14.40;75.87
64876;BME280;51369;49.862;9.908;2023-04-23T02:57:41;97624.44;;;14.40;75.63
64876;BME280;51369;49.862;9.908;2023-04-23T03:00:07;97618.25;;;14.38;75.31
64876;BME280;51369;49.862;9.908;2023-04-23T03:02:38;97613.59;;;14.40;75.52
64876;BME280;51369;49.862;9.908;2023-04-23T03:05:04;97613.59;;;14.40;75.05
64876;BME280;51369;49.862;9.908;2023-04-23T03:07:30;97617.38;;;14.37;75.32
64876;BME280;51369;49.862;9.908;2023-04-23T03:09:56;97615.66;;;14.36;74.77
64876;BME280;51369;49.862;9.908;2023-04-23T03:12:22;97613.03;;;14.34;75.19
64876;BME280;51369;49.862;9.908;2023-04-23T03:14:47;97618.47;;;14.34;75.59
64876;BME280;51369;49.862;9.908;2023-04-23T03:17:13;97615.00;;;14.32;75.11
64876;BME280;51369;49.862;9.908;2023-04-23T03:19:39;97619.56;;;14.32;75.11
64876;BME280;51369;49.862;9.908;2023-04-23T03:22:04;97620.44;;;14.32;75.48
64876;BME280;51369;49.862;9.908;2023-04-23T03:24:32;97622.28;;;14.32;75.65
64876;BME280;51369;49.862;9.908;2023-04-23T03:26:58;97618.78;;;14.30;75.55
64876;BME280;51369;49.862;9.908;2023-04-23T03:29:24;97620.63;;;14.29;75.67
64876;BME280;51369;49.862;9.908;2023-04-23T03:31:49;97621.63;;;14.28;75.32
64876;BME280;51369;49.862;9.908;2023-04-23T03:34:15;97615.41;;;14.26;74.69
64876;BME280;51369;49.862;9.908;2023-04-23T03:36:40;97618.13;;;14.26;75.08
64876;BME280;51369;49.862;9.908;2023-04-23T03:39:06;97616.50;;;14.24;74.60
64876;BME280;51369;49.862;9.908;2023-04-23T03:41:44;97622.91;;;14.23;74.41
64876;BME280;51369;49.862;9.908;2023-04-23T03:44:11;97628.34;;;14.23;74.57
64876;BME280;51369;49.862;9.908;2023-04-23T03:46:39;97624.88;;;14.21;74.81
64876;BME280;51369;49.862;9.908;2023-04-23T03:49:05;97617.78;;;14.18;75.25
64876;BME280;51369;49.862;9.908;2023-04-23T03:51:30;97626.91;;;14.17;75.08
64876;BME280;51369;49.862;9.908;2023-04-23T03:53:56;97630.59;;;14.16;74.72
64876;BME280;51369;49.862;9.908;2023-04-23T03:56:39;97619.75;;;14.16;74.88
64876;BME280;51369;49.862;9.908;2023-04-23T03:59:21;97632.44;;;14.16;74.93
64876;BME280;51369;49.862;9.908;2023-04-23T04:01:48;97630.72;;;14.15;75.00
64876;BME280;51369;49.862;9.908;2023-04-23T04:04:14;97635.38;;;14.13;75.39
64876;BME280;51369;49.862;9.908;2023-04-23T04:06:40;97635.38;;;14.13;75.08
64876;BME280;51369;49.862;9.908;2023-04-23T04:09:05;97633.53;;;14.13;74.80
64876;BME280;51369;49.862;9.908;2023-04-23T04:11:32;97636.34;;;14.12;74.55
64876;BME280;51369;49.862;9.908;2023-04-23T04:13:58;97639.94;;;14.12;75.03
64876;BME280;51369;49.862;9.908;2023-04-23T04:16:23;97636.34;;;14.12;75.60
64876;BME280;51369;49.862;9.908;2023-04-23T04:18:48;97638.09;;;14.13;75.36
64876;BME280;51369;49.862;9.908;2023-04-23T04:21:14;97638.97;;;14.13;75.67
64876;BME280;51369;49.862;9.908;2023-04-23T04:23:42;97635.47;;;14.11;75.19
64876;BME280;51369;49.862;9.908;2023-04-23T04:26:07;97634.50;;;14.12;75.67
64876;BME280;51369;49.862;9.908;2023-04-23T04:28:33;97638.19;;;14.11;76.00
64876;BME280;51369;49.862;9.908;2023-04-23T04:31:01;97635.47;;;14.11;76.02
64876;BME280;51369;49.862;9.908;2023-04-23T04:33:26;97646.34;;;14.11;76.22
64876;BME280;51369;49.862;9.908;2023-04-23T04:35:53;97641.78;;;14.12;76.05
64876;BME280;51369;49.862;9.908;2023-04-23T04:38:19;97639.94;;;14.12;75.74
64876;BME280;51369;49.862;9.908;2023-04-23T04:40:46;97638.19;;;14.11;75.69
64876;BME280;51369;49.862;9.908;2023-04-23T04:43:13;97635.47;;;14.11;75.95
64876;BME280;51369;49.862;9.908;2023-04-23T04:45:40;97648.19;;;14.11;75.85
64876;BME280;51369;49.862;9.908;2023-04-23T04:48:06;97653.63;;;14.11;75.92
64876;BME280;51369;49.862;9.908;2023-04-23T04:50:32;97645.56;;;14.09;75.46
64876;BME280;51369;49.862;9.908;2023-04-23T04:52:57;97649.25;;;14.08;75.32
64876;BME280;51369;49.862;9.908;2023-04-23T04:55:22;97642.09;;;14.07;75.62
64876;BME280;51369;49.862;9.908;2023-04-23T04:57:48;97642.19;;;14.06;75.42
64876;BME280;51369;49.862;9.908;2023-04-23T05:00:27;97646.00;;;14.03;75.67
64876;BME280;51369;49.862;9.908;2023-04-23T05:02:55;97651.22;;;14.06;75.29
64876;BME280;51369;49.862;9.908;2023-04-23T05:05:21;97653.94;;;14.06;75.29
64876;BME280;51369;49.862;9.908;2023-04-23T05:07:48;97646.66;;;14.07;75.45
64876;BME280;51369;49.862;9.908;2023-04-23T05:10:14;97650.13;;;14.09;75.28
64876;BME280;51369;49.862;9.908;2023-04-23T05:12:40;97661.88;;;14.09;75.46
64876;BME280;51369;49.862;9.908;2023-04-23T05:15:10;97666.31;;;14.10;75.26
64876;BME280;51369;49.862;9.908;2023-04-23T05:17:40;97663.50;;;14.12;74.80
64876;BME280;51369;49.862;9.908;2023-04-23T05:20:06;97668.06;;;14.11;75.04
64876;BME280;51369;49.862;9.908;2023-04-23T05:22:37;97668.94;;;14.12;74.94
64876;BME280;51369;49.862;9.908;2023-04-23T05:25:04;97666.31;;;14.10;75.23
64876;BME280;51369;49.862;9.908;2023-04-23T05:27:29;97663.59;;;14.10;75.20
64876;BME280;51369;49.862;9.908;2023-04-23T05:29:55;97668.16;;;14.10;74.89
64876;BME280;51369;49.862;9.908;2023-04-23T05:32:20;97671.75;;;14.10;75.18
64876;BME280;51369;49.862;9.908;2023-04-23T05:34:46;97677.19;;;14.10;74.38
64876;BME280;51369;49.862;9.908;2023-04-23T05:37:11;97678.91;;;14.11;74.52
64876;BME280;51369;49.862;9.908;2023-04-23T05:39:36;97675.22;;;14.12;74.80
64876;BME280;51369;49.862;9.908;2023-04-23T05:42:02;97683.06;;;14.17;74.60
64876;BME280;51369;49.862;9.908;2023-04-23T05:44:28;97681.09;;;14.19;75.23
64876;BME280;51369;49.862;9.908;2023-04-23T05:46:53;97680.78;;;14.23;75.11
64876;BME280;51369;49.862;9.908;2023-04-23T05:49:19;97681.34;;;14.28;75.13
64876;BME280;51369;49.862;9.908;2023-04-23T05:51:44;97685.50;;;14.34;74.86
64876;BME280;51369;49.862;9.908;2023-04-23T05:54:10;97686.34;;;14.34;74.85
64876;BME280;51369;49.862;9.908;2023-04-23T05:56:35;97689.84;;;14.37;75.26
64876;BME280;51369;49.862;9.908;2023-04-23T05:59:00;97681.81;;;14.35;74.75
64876;BME280;51369;49.862;9.908;2023-04-23T06:01:25;97695.38;;;14.35;74.84
64876;BME280;51369;49.862;9.908;2023-04-23T06:03:51;97692.75;;;14.33;75.05
64876;BME280;51369;49.862;9.908;2023-04-23T06:06:17;97685.69;;;14.31;74.80
64876;BME280;51369;49.862;9.908;2023-04-23T06:08:42;97693.94;;;14.29;75.05
64876;BME280;51369;49.862;9.908;2023-04-23T06:11:07;97693.06;;;14.29;74.81
64876;BME280;51369;49.862;9.908;2023-04-23T06:13:33;97694.72;;;14.31;74.96
64876;BME280;51369;49.862;9.908;2023-04-23T06:16:04;97700.50;;;14.40;74.90
64876;BME280;51369;49.862;9.908;2023-04-23T06:18:29;97699.34;;;14.56;75.92
64876;BME280;51369;49.862;9.908;2023-04-23T06:20:55;97696.44;;;14.85;75.49
64876;BME280;51369;49.862;9.908;2023-04-23T06:23:21;97694.91;;;15.19;74.82
64876;BME280;51369;49.862;9.908;2023-04-23T06:25:47;97691.06;;;15.59;74.21
64876;BME280;51369;49.862;9.908;2023-04-23T06:28:12;97694.38;;;16.00;72.81
64876;BME280;51369;49.862;9.908;2023-04-23T06:30:50;97692.44;;;16.37;71.75
64876;BME280;51369;49.862;9.908;2023-04-23T06:33:15;97687.81;;;16.61;70.31
64876;BME280;51369;49.862;9.908;2023-04-23T06:35:40;97685.16;;;16.72;68.83
64876;BME280;51369;49.862;9.908;2023-04-23T06:38:06;97686.66;;;16.76;67.80
64876;BME280;51369;49.862;9.908;2023-04-23T06:40:32;97681.31;;;16.75;67.97
64876;BME280;51369;49.862;9.908;2023-04-23T06:42:58;97683.53;;;16.70;66.59
64876;BME280;51369;49.862;9.908;2023-04-23T06:45:38;97687.56;;;16.64;66.14
64876;BME280;51369;49.862;9.908;2023-04-23T06:48:03;97679.13;;;16.56;66.48
64876;BME280;51369;49.862;9.908;2023-04-23T06:50:28;97680.59;;;16.49;67.17
64876;BME280;51369;49.862;9.908;2023-04-23T06:52:54;97684.66;;;16.43;66.87
64876;BME280;51369;49.862;9.908;2023-04-23T06:55:20;97691.34;;;16.39;66.56
64876;BME280;51369;49.862;9.908;2023-04-23T06:57:46;97687.00;;;16.37;66.92
64876;BME280;51369;49.862;9.908;2023-04-23T07:00:12;97678.47;;;16.41;66.37
64876;BME280;51369;49.862;9.908;2023-04-23T07:02:40;97684.31;;;16.48;65.90
64876;BME280;51369;49.862;9.908;2023-04-23T07:05:05;97685.69;;;16.53;65.92
64876;BME280;51369;49.862;9.908;2023-04-23T07:07:31;97685.31;;;16.58;65.44
64876;BME280;51369;49.862;9.908;2023-04-23T07:09:56;97686.94;;;16.60;65.02
64876;BME280;51369;49.862;9.908;2023-04-23T07:12:22;97679.63;;;16.61;64.57
64876;BME280;51369;49.862;9.908;2023-04-23T07:14:48;97684.34;;;16.59;64.67
64876;BME280;51369;49.862;9.908;2023-04-23T07:17:13;97673.69;;;16.56;63.76
64876;BME280;51369;49.862;9.908;2023-04-23T07:19:38;97667.84;;;16.49;63.66
64876;BME280;51369;49.862;9.908;2023-04-23T07:22:04;97668.31;;;16.43;64.28
64876;BME280;51369;49.862;9.908;2023-04-23T07:24:29;97671.03;;;16.43;64.08
64876;BME280;51369;49.862;9.908;2023-04-23T07:26:55;97675.91;;;16.51;63.93
64876;BME280;51369;49.862;9.908;2023-04-23T07:29:20;97672.63;;;16.70;63.94
64876;BME280;51369;49.862;9.908;2023-04-23T07:31:46;97672.31;;;16.97;62.93
64876;BME280;51369;49.862;9.908;2023-04-23T07:34:12;97669.09;;;17.25;62.58
64876;BME280;51369;49.862;9.908;2023-04-23T07:36:37;97671.53;;;17.50;62.52
64876;BME280;51369;49.862;9.908;2023-04-23T07:39:03;97667.31;;;17.69;61.69
64876;BME280;51369;49.862;9.908;2023-04-23T07:41:30;97660.22;;;17.88;61.39
64876;BME280;51369;49.862;9.908;2023-04-23T07:43:55;97660.41;;;18.08;61.34
64876;BME280;51369;49.862;9.908;2023-04-23T07:46:21;97667.16;;;18.25;60.33
64876;BME280;51369;49.862;9.908;2023-04-23T07:48:46;97662.91;;;18.32;59.40
64876;BME280;51369;49.862;9.908;2023-04-23T07:51:12;97661.19;;;18.31;59.23
64876;BME280;51369;49.862;9.908;2023-04-23T07:53:37;97654.84;;;18.30;58.84
64876;BME280;51369;49.862;9.908;2023-04-23T07:56:03;97658.31;;;18.32;59.17
64876;BME280;51369;49.862;9.908;2023-04-23T07:58:28;97654.97;;;18.29;58.89
64876;BME280;51369;49.862;9.908;2023-04-23T08:00:54;97662.44;;;18.27;59.16
64876;BME280;51369;49.862;9.908;2023-04-23T08:03:19;97664.78;;;18.31;60.08
64876;BME280;51369;49.862;9.908;2023-04-23T08:05:45;97655.19;;;18.37;59.48
64876;BME280;51369;49.862;9.908;2023-04-23T08:08:12;97662.25;;;18.39;59.17
64876;BME280;51369;49.862;9.908;2023-04-23T08:10:37;97669.00;;;18.35;58.86
64876;BME280;51369;49.862;9.908;2023-04-23T08:13:03;97660.72;;;18.26;57.68
64876;BME280;51369;49.862;9.908;2023-04-23T08:15:28;97665.47;;;18.12;58.57
64876;BME280;51369;49.862;9.908;2023-04-23T08:17:54;97657.44;;;18.00;58.05
64876;BME280;51369;49.862;9.908;2023-04-23T08:20:19;97659.81;;;17.93;58.28
64876;BME280;51369;49.862;9.908;2023-04-23T08:22:44;97656.22;;;17.93;58.95
64876;BME280;51369;49.862;9.908;2023-04-23T08:25:10;97652.59;;;18.03;59.63
64876;BME280;51369;49.862;9.908;2023-04-23T08:27:37;97653.91;;;18.20;59.11
64876;BME280;51369;49.862;9.908;2023-04-23T08:30:03;97648.59;;;18.39;58.81
64876;BME280;51369;49.862;9.908;2023-04-23T08:32:29;97646.88;;;18.59;59.22
64876;BME280;51369;49.862;9.908;2023-04-23T08:34:55;97639.84;;;18.77;58.52
64876;BME280;51369;49.862;9.908;2023-04-23T08:37:20;97638.63;;;18.91;56.81
64876;BME280;51369;49.862;9.908;2023-04-23T08:39:45;97640.56;;;19.00;56.87
64876;BME280;51369;49.862;9.908;2023-04-23T08:42:31;97632.06;;;19.03;57.14
64876;BME280;51369;49.862;9.908;2023-04-23T08:44:58;97631.81;;;19.06;56.95
64876;BME280;51369;49.862;9.908;2023-04-23T08:47:25;97634.94;;;19.02;57.12
64876;BME280;51369;49.862;9.908;2023-04-23T08:49:53;97629.47;;;19.02;57.20
64876;BME280;51369;49.862;9.908;2023-04-23T08:52:23;97635.94;;;19.01;56.46
64876;BME280;51369;49.862;9.908;2023-04-23T08:54:51;97637.69;;;19.02;57.02
64876;BME280;51369;49.862;9.908;2023-04-23T08:57:17;97624.00;;;19.02;56.65
64876;BME280;51369;49.862;9.908;2023-04-23T08:59:43;97633.22;;;19.01;56.89
64876;BME280;51369;49.862;9.908;2023-04-23T09:02:10;97634.47;;;18.97;55.50
64876;BME280;51369;49.862;9.908;2023-04-23T09:04:36;97625.81;;;18.92;56.18
64876;BME280;51369;49.862;9.908;2023-04-23T09:07:02;97629.97;;;18.86;55.96
64876;BME280;51369;49.862;9.908;2023-04-23T09:09:29;97632.09;;;18.82;55.96
64876;BME280;51369;49.862;9.908;2023-04-23T09:11:55;97631.09;;;18.83;55.72
64876;BME280;51369;49.862;9.908;2023-04-23T09:14:22;97627.69;;;18.91;55.50
64876;BME280;51369;49.862;9.908;2023-04-23T09:16:52;97624.72;;;19.04;55.84
64876;BME280;51369;49.862;9.908;2023-04-23T09:19:18;97615.41;;;19.16;55.19
64876;BME280;51369;49.862;9.908;2023-04-23T09:21:44;97622.66;;;19.27;55.22
64876;BME280;51369;49.862;9.908;2023-04-23T09:24:11;97621.69;;;19.37;55.99
64876;BME280;51369;49.862;9.908;2023-04-23T09:26:47;97617.81;;;19.49;55.24
64876;BME280;51369;49.862;9.908;2023-04-23T09:29:17;97620.50;;;19.61;54.96
64876;BME280;51369;49.862;9.908;2023-04-23T09:31:45;97614.31;;;19.68;55.02
64876;BME280;51369;49.862;9.908;2023-04-23T09:34:19;97612.44;;;19.69;54.73
64876;BME280;51369;49.862;9.908;2023-04-23T09:36:47;97602.78;;;19.65;54.35
64876;BME280;51369;49.862;9.908;2023-04-23T09:39:16;97606.38;;;19.65;55.15
64876;BME280;51369;49.862;9.908;2023-04-23T09:41:43;97599.63;;;19.79;55.48
64876;BME280;51369;49.862;9.908;2023-04-23T09:44:10;97603.53;;;19.96;54.65
64876;BME280;51369;49.862;9.908;2023-04-23T09:46:40;97595.34;;;20.05;53.65
64876;BME280;51369;49.862;9.908;2023-04-23T09:49:08;97593.91;;;20.21;54.45
64876;BME280;51369;49.862;9.908;2023-04-23T09:51:37;97586.84;;;20.47;53.76
64876;BME280;51369;49.862;9.908;2023-04-23T09:54:09;97587.94;;;20.73;52.48
64876;BME280;51369;49.862;9.908;2023-04-23T09:56:35;97581.81;;;20.89;51.60
64876;BME280;51369;49.862;9.908;2023-04-23T09:59:01;97580.66;;;20.92;51.57
64876;BME280;51369;49.862;9.908;2023-04-23T10:01:27;97587.03;;;20.83;51.55
64876;BME280;51369;49.862;9.908;2023-04-23T10:03:54;97583.91;;;20.68;50.88
64876;BME280;51369;49.862;9.908;2023-04-23T10:06:26;97593.03;;;20.49;49.84
64876;BME280;51369;49.862;9.908;2023-04-23T10:08:55;97592.44;;;20.36;50.70
64876;BME280;51369;49.862;9.908;2023-04-23T10:11:23;97587.53;;;20.30;51.59
64876;BME280;51369;49.862;9.908;2023-04-23T10:13:48;97583.06;;;20.29;51.85
64876;BME280;51369;49.862;9.908;2023-04-23T10:16:15;97581.34;;;20.28;50.85
64876;BME280;51369;49.862;9.908;2023-04-23T10:18:42;97573.56;;;20.23;51.01
64876;BME280;51369;49.862;9.908;2023-04-23T10:21:08;97578.16;;;20.23;52.65
64876;BME280;51369;49.862;9.908;2023-04-23T10:23:35;97574.84;;;20.19;52.26
64876;BME280;51369;49.862;9.908;2023-04-23T10:26:03;97567.22;;;20.13;51.75
64876;BME280;51369;49.862;9.908;2023-04-23T10:28:29;97563.31;;;20.06;51.46
64876;BME280;51369;49.862;9.908;2023-04-23T10:30:58;97569.81;;;19.95;51.63
64876;BME280;51369;49.862;9.908;2023-04-23T10:33:25;97567.91;;;19.86;52.26
64876;BME280;51369;49.862;9.908;2023-04-23T10:35:51;97569.50;;;19.79;51.72
64876;BME280;51369;49.862;9.908;2023-04-23T10:38:19;97559.13;;;19.73;52.23
64876;BME280;51369;49.862;9.908;2023-04-23T10:40:49;97564.44;;;19.65;52.84
64876;BME280;51369;49.862;9.908;2023-04-23T10:43:17;97567.59;;;19.60;53.01
64876;BME280;51369;49.862;9.908;2023-04-23T10:45:43;97560.38;;;19.59;52.76
64876;BME280;51369;49.862;9.908;2023-04-23T10:48:08;97556.94;;;19.57;53.37
64876;BME280;51369;49.862;9.908;2023-04-23T10:50:35;97554.91;;;19.59;52.98
64876;BME280;51369;49.862;9.908;2023-04-23T10:53:02;97554.31;;;19.56;52.82
64876;BME280;51369;49.862;9.908;2023-04-23T10:55:29;97544.09;;;19.58;52.44
64876;BME280;51369;49.862;9.908;2023-04-23T11:00:26;97544.84;;;20.08;52.68
64876;BME280;51369;49.862;9.908;2023-04-23T11:02:52;97531.56;;;20.52;52.41
64876;BME280;51369;49.862;9.908;2023-04-23T11:05:17;97522.00;;;20.93;50.95
64876;BME280;51369;49.862;9.908;2023-04-23T11:08:01;97522.66;;;21.41;50.22
64876;BME280;51369;49.862;9.908;2023-04-23T11:10:27;97521.63;;;21.88;49.90
64876;BME280;51369;49.862;9.908;2023-04-23T11:12:54;97527.19;;;22.31;49.11
64876;BME280;51369;49.862;9.908;2023-04-23T11:15:20;97517.50;;;22.71;47.87
64876;BME280;51369;49.862;9.908;2023-04-23T11:20:14;97508.44;;;23.47;47.00
64876;BME280;51369;49.862;9.908;2023-04-23T11:22:44;97508.22;;;23.82;45.75
64876;BME280;51369;49.862;9.908;2023-04-23T11:25:11;97506.53;;;24.14;43.68
64876;BME280;51369;49.862;9.908;2023-04-23T11:27:41;97505.50;;;24.39;43.64
64876;BME280;51369;49.862;9.908;2023-04-23T11:30:28;97507.53;;;24.61;43.35
64876;BME280;51369;49.862;9.908;2023-04-23T11:32:55;97500.81;;;24.72;44.83
64876;BME280;51369;49.862;9.908;2023-04-23T11:35:24;97499.63;;;24.58;42.56
64876;BME280;51369;49.862;9.908;2023-04-23T11:37:54;97497.72;;;24.43;41.60
64876;BME280;51369;49.862;9.908;2023-04-23T11:40:21;97499.28;;;24.37;42.03
64876;BME280;51369;49.862;9.908;2023-04-23T11:42:51;97506.72;;;24.37;42.07
64876;BME280;51369;49.862;9.908;2023-04-23T11:45:26;97499.13;;;24.22;40.46
64876;BME280;51369;49.862;9.908;2023-04-23T11:47:57;97496.34;;;24.06;40.76
64876;BME280;51369;49.862;9.908;2023-04-23T11:50:30;97493.91;;;23.87;41.27
64876;BME280;51369;49.862;9.908;2023-04-23T11:53:03;97485.44;;;23.72;41.29
64876;BME280;51369;49.862;9.908;2023-04-23T11:55:28;97481.06;;;23.53;41.01
64876;BME280;51369;49.862;9.908;2023-04-23T11:57:55;97484.38;;;23.57;42.18
64876;BME280;51369;49.862;9.908;2023-04-23T12:00:23;97479.44;;;23.77;43.81
64876;BME280;51369;49.862;9.908;2023-04-23T12:03:01;97471.00;;;23.94;41.91
64876;BME280;51369;49.862;9.908;2023-04-23T12:05:28;97464.81;;;24.09;41.16
64876;BME280;51369;49.862;9.908;2023-04-23T12:07:54;97462.56;;;24.12;42.30
64876;BME280;51369;49.862;9.908;2023-04-23T12:10:30;97455.16;;;24.05;40.60
64876;BME280;51369;49.862;9.908;2023-04-23T12:12:57;97457.56;;;23.99;40.40
64876;BME280;51369;49.862;9.908;2023-04-23T12:15:22;97453.78;;;23.92;41.26
64876;BME280;51369;49.862;9.908;2023-04-23T12:18:07;97459.28;;;23.76;40.78
64876;BME280;51369;49.862;9.908;2023-04-23T12:20:33;97457.91;;;23.72;40.68
64876;BME280;51369;49.862;9.908;2023-04-23T12:23:03;97453.75;;;23.68;40.90
64876;BME280;51369;49.862;9.908;2023-04-23T12:25:29;97457.03;;;23.72;40.09
64876;BME280;51369;49.862;9.908;2023-04-23T12:27:58;97456.69;;;23.83;40.44
64876;BME280;51369;49.862;9.908;2023-04-23T12:30:27;97457.22;;;23.94;41.03
64876;BME280;51369;49.862;9.908;2023-04-23T12:32:58;97455.84;;;24.07;41.63
64876;BME280;51369;49.862;9.908;2023-04-23T12:35:44;97452.41;;;24.21;41.21
64876;BME280;51369;49.862;9.908;2023-04-23T12:38:27;97449.47;;;24.39;41.93
64876;BME280;51369;49.862;9.908;2023-04-23T12:40:54;97440.63;;;24.59;42.03
64876;BME280;51369;49.862;9.908;2023-04-23T12:43:20;97434.56;;;24.72;40.26
64876;BME280;51369;49.862;9.908;2023-04-23T12:45:46;97438.00;;;24.74;40.06
64876;BME280;51369;49.862;9.908;2023-04-23T12:48:12;97439.72;;;24.75;39.16
64876;BME280;51369;49.862;9.908;2023-04-23T12:50:38;97428.47;;;24.85;40.45
64876;BME280;51369;49.862;9.908;2023-04-23T12:53:03;97424.47;;;24.95;38.67
64876;BME280;51369;49.862;9.908;2023-04-23T12:55:29;97428.25;;;25.03;38.06
64876;BME280;51369;49.862;9.908;2023-04-23T12:57:54;97418.03;;;25.11;39.54
64876;BME280;51369;49.862;9.908;2023-04-23T13:00:21;97427.16;;;25.20;39.69
64876;BME280;51369;49.862;9.908;2023-04-23T13:02:46;97413.66;;;25.25;38.18
64876;BME280;51369;49.862;9.908;2023-04-23T13:05:11;97408.09;;;25.33;39.94